Explorer Of The Seas — C6SE4 — position and weather

sailwx.info

Track history (hours):
 
Tides and Currents Weather Stations Pressure Air Temp Water Temp Dewpoint Dewpoint Depression Visibility Wind Speed Wind Dir Waves Ship Positions

Explorer Of The Seas

Operator: Royal Caribbean Cruises Ltd

Last reported at 2018-Apr-20 09:00 UTC. Time now 2018-Apr-20 14:04 UTC.
Position S 27°06' E 160°12'.

Length 311 m; draft 9.1 m.

Type: Passenger vessel. MMSI: 311316000.

Wind from 140 at 28 knots

Barometer 1016.6 mb
Air temperature 19.0 ° C
Water temperature 23.5 ° C

Date/timePositionNaut miles runAvg speedWind from/ knotsBaromVisibWave heightAir tempDewpointWater temp
2018-Apr-20 09:00S 27°06' E 160°12'10818.0 140 / 281016.6 19.0 23.5
2018-Apr-20 03:00S 25°54' E 161°42'4816.1 110 / 91015.8 24.0 25.0
2018-Apr-20 00:00S 25°24' E 162°24'26217.2 110 / 101017.927.0 23.018.325.0
2018-Apr-19 08:46S 22°33' E 166°02'517.5
2018-Apr-19 08:30S 22°30' E 166°05'917.1
2018-Apr-19 08:01S 22°24' E 166°12'713.7
2018-Apr-19 07:30S 22°19' E 166°18'714.2
2018-Apr-19 07:00S 22°15' E 166°23'3 5.6
2018-Apr-19 06:30S 22°16' E 166°26'0 0.1
2018-Apr-19 05:58S 22°16' E 166°26'0 0.0
2018-Apr-19 05:28S 22°16' E 166°26'0 0.0
2018-Apr-19 04:58S 22°16' E 166°26'0 0.0
2018-Apr-19 04:28S 22°16' E 166°26'0 0.0
2018-Apr-19 03:58S 22°16' E 166°26'0 0.0
2018-Apr-19 03:28S 22°16' E 166°26'0 0.0
2018-Apr-19 02:58S 22°16' E 166°26'0 0.0
2018-Apr-19 02:28S 22°16' E 166°26'0 0.0
2018-Apr-19 01:58S 22°16' E 166°26'0 0.0
2018-Apr-19 01:28S 22°16' E 166°26'0 0.0
2018-Apr-19 00:58S 22°16' E 166°26'0 0.0
2018-Apr-19 00:31S 22°16' E 166°26'0 0.0
2018-Apr-18 23:58S 22°16' E 166°26'0 0.0
2018-Apr-18 23:28S 22°16' E 166°26'0 0.0
2018-Apr-18 22:58S 22°16' E 166°26'0 0.0
2018-Apr-18 22:31S 22°16' E 166°26'0 0.0
2018-Apr-18 21:58S 22°16' E 166°26'0 0.0
2018-Apr-18 21:31S 22°16' E 166°26'0 0.0
2018-Apr-18 20:58S 22°16' E 166°26'0 0.1
2018-Apr-18 20:30S 22°16' E 166°26'2 4.6
2018-Apr-18 20:00S 22°15' E 166°24'5 9.3
2018-Apr-18 19:30S 22°19' E 166°26'713.3
2018-Apr-18 19:00S 22°21' E 166°32'612.9
2018-Apr-18 18:30S 22°23' E 166°39'77 8.1
2018-Apr-18 09:00S 21°06' E 166°48'144 6.9 080 / 221014.7 23.0 26.7
2018-Apr-17 12:00S 23°30' E 166°36'5718.9 090 / 221017.8 22.0 25.0
2018-Apr-17 09:00S 24°06' E 165°48'71019.7 090 / 211017.7 22.0 25.0
2018-Apr-15 21:00S 31°18' E 155°12'13220.9 220 / 101013.910.8 23.423.124.6
2018-Apr-15 14:41S 32°40' E 153°10'318.8
2018-Apr-15 14:30S 32°42' E 153°07'1218.5
2018-Apr-15 13:51S 32°49' E 152°56'618.0
2018-Apr-15 13:30S 32°53' E 152°50'917.6
2018-Apr-15 13:00S 32°59' E 152°42'918.3
2018-Apr-15 12:30S 33°04' E 152°33'1019.9
2018-Apr-15 12:00S 33°10' E 152°24'1020.7
2018-Apr-15 11:30S 33°17' E 152°14'2120.3
2018-Apr-15 10:29S 33°29' E 151°54'920.1
2018-Apr-15 10:00S 33°35' E 151°45'1020.3
2018-Apr-15 09:30S 33°41' E 151°35'1020.3
2018-Apr-15 09:00S 33°47' E 151°26'713.8
2018-Apr-15 08:31S 33°50' E 151°18'4 8.5
2018-Apr-15 08:00S 33°51' E 151°13'0 0.0
2018-Apr-14 20:19S 33°52' E 151°13'1 3.0
2018-Apr-14 20:00S 33°51' E 151°14'5 9.3
2018-Apr-14 19:30S 33°50' E 151°19'612.4
2018-Apr-14 19:00S 33°47' E 151°26'816.5
2018-Apr-14 18:30S 33°42' E 151°33'816.5
2018-Apr-14 18:00S 33°36' E 151°41'4416.0
2018-Apr-14 15:14S 33°07' E 152°20'416.0
2018-Apr-14 15:00S 33°04' E 152°24'1017.3
2018-Apr-14 14:25S 32°58' E 152°33'819.8
2018-Apr-14 14:00S 32°53' E 152°40'1119.7
2018-Apr-14 13:26S 32°45' E 152°50'819.5
2018-Apr-14 13:00S 32°40' E 152°58'919.1
2018-Apr-14 12:30S 32°33' E 153°06'7220.5
2018-Apr-14 09:00S 31°42' E 154°06'10116.9 360 / 291004.0 23.0 24.0
2018-Apr-14 03:00S 30°36' E 155°36'4715.7 340 / 331008.8 22.0 23.0
2018-Apr-14 00:00S 30°06' E 156°18'5117.1 360 / 271013.610.8 24.021.025.0
2018-Apr-13 21:00S 29°30' E 157°00'22218.5 360 / 251014.810.8 23.117.023.3
2018-Apr-13 09:00S 27°06' E 160°12'40316.8 080 / 121019.510.8 22.017.225.0
2018-Apr-12 09:00S 22°42' E 165°48'1618.8 110 / 321018.9 22.0 25.0
2018-Apr-12 08:08S 22°32' E 166°02'316.6
2018-Apr-12 07:57S 22°30' E 166°05'714.5
2018-Apr-12 07:30S 22°26' E 166°10'815.7
2018-Apr-12 07:01S 22°21' E 166°16'714.7
2018-Apr-12 06:30S 22°16' E 166°22'4 7.9
2018-Apr-12 06:01S 22°16' E 166°26'0 0.4
2018-Apr-12 05:30S 22°16' E 166°26'0 0.0
2018-Apr-12 05:00S 22°16' E 166°26'0 0.0
2018-Apr-12 04:30S 22°16' E 166°26'0 0.0
2018-Apr-12 04:00S 22°16' E 166°26'0 0.0
2018-Apr-12 03:30S 22°16' E 166°26'0 0.0
2018-Apr-12 03:00S 22°16' E 166°26'0 0.0
2018-Apr-12 02:30S 22°16' E 166°26'0 0.0
2018-Apr-12 02:00S 22°16' E 166°26'0 0.0
2018-Apr-12 01:30S 22°16' E 166°26'0 0.0
2018-Apr-12 01:00S 22°16' E 166°26'0 0.0
2018-Apr-12 00:27S 22°16' E 166°26'0 0.0
2018-Apr-11 23:57S 22°16' E 166°26'0 0.0
2018-Apr-11 23:27S 22°16' E 166°26'0 0.0
2018-Apr-11 23:00S 22°16' E 166°26'0 0.0
2018-Apr-11 22:30S 22°16' E 166°26'0 0.0
2018-Apr-11 22:00S 22°16' E 166°26'0 0.0
2018-Apr-11 21:30S 22°16' E 166°26'0 0.0
2018-Apr-11 21:00S 22°16' E 166°26'0 0.0
2018-Apr-11 20:31S 22°16' E 166°26'2 4.0
2018-Apr-11 20:01S 22°15' E 166°24'5 9.4
2018-Apr-11 19:30S 22°19' E 166°26'815.4
2018-Apr-11 19:00S 22°22' E 166°34'78 7.8
2018-Apr-11 09:00S 21°06' E 166°54'190 7.9 150 / 331013.5 22.0 26.5
2018-Apr-10 09:00S 24°06' E 165°48'   150 / 281010.9 22.0 25.0
Track history (hours):
 
Tides and Currents Weather Stations Pressure Air Temp Water Temp Dewpoint Dewpoint Depression Visibility Wind Speed Wind Dir Waves Ship Positions

Explorer Of The Seas

Operator: Royal Caribbean Cruises Ltd

Last reported at 2018-Apr-20 09:00 UTC. Time now 2018-Apr-20 14:04 UTC.
Position S 27°06' E 160°12'.

Length 311 m; draft 9.1 m.

Type: Passenger vessel. MMSI: 311316000.

Wind from 140 at 28 knots

Barometer 1016.6 mb
Air temperature 19.0 ° C
Water temperature 23.5 ° C

Date/timePositionNaut miles runAvg speedWind from/ knotsBaromVisibWave heightAir tempDewpointWater temp
2018-Apr-20 09:00S 27°06' E 160°12'10818.0 140 / 281016.6 19.0 23.5
2018-Apr-20 03:00S 25°54' E 161°42'4816.1 110 / 91015.8 24.0 25.0
2018-Apr-20 00:00S 25°24' E 162°24'26217.2 110 / 101017.927.0 23.018.325.0
2018-Apr-19 08:46S 22°33' E 166°02'517.5
2018-Apr-19 08:30S 22°30' E 166°05'917.1
2018-Apr-19 08:01S 22°24' E 166°12'713.7
2018-Apr-19 07:30S 22°19' E 166°18'714.2
2018-Apr-19 07:00S 22°15' E 166°23'3 5.6
2018-Apr-19 06:30S 22°16' E 166°26'0 0.1
2018-Apr-19 05:58S 22°16' E 166°26'0 0.0
2018-Apr-19 05:28S 22°16' E 166°26'0 0.0
2018-Apr-19 04:58S 22°16' E 166°26'0 0.0
2018-Apr-19 04:28S 22°16' E 166°26'0 0.0
2018-Apr-19 03:58S 22°16' E 166°26'0 0.0
2018-Apr-19 03:28S 22°16' E 166°26'0 0.0
2018-Apr-19 02:58S 22°16' E 166°26'0 0.0
2018-Apr-19 02:28S 22°16' E 166°26'0 0.0
2018-Apr-19 01:58S 22°16' E 166°26'0 0.0
2018-Apr-19 01:28S 22°16' E 166°26'0 0.0
2018-Apr-19 00:58S 22°16' E 166°26'0 0.0
2018-Apr-19 00:31S 22°16' E 166°26'0 0.0
2018-Apr-18 23:58S 22°16' E 166°26'0 0.0
2018-Apr-18 23:28S 22°16' E 166°26'0 0.0
2018-Apr-18 22:58S 22°16' E 166°26'0 0.0
2018-Apr-18 22:31S 22°16' E 166°26'0 0.0
2018-Apr-18 21:58S 22°16' E 166°26'0 0.0
2018-Apr-18 21:31S 22°16' E 166°26'0 0.0
2018-Apr-18 20:58S 22°16' E 166°26'0 0.1
2018-Apr-18 20:30S 22°16' E 166°26'2 4.6
2018-Apr-18 20:00S 22°15' E 166°24'5 9.3
2018-Apr-18 19:30S 22°19' E 166°26'713.3
2018-Apr-18 19:00S 22°21' E 166°32'612.9
2018-Apr-18 18:30S 22°23' E 166°39'77 8.1
2018-Apr-18 09:00S 21°06' E 166°48'144 6.9 080 / 221014.7 23.0 26.7
2018-Apr-17 12:00S 23°30' E 166°36'5718.9 090 / 221017.8 22.0 25.0
2018-Apr-17 09:00S 24°06' E 165°48'71019.7 090 / 211017.7 22.0 25.0
2018-Apr-15 21:00S 31°18' E 155°12'13220.9 220 / 101013.910.8 23.423.124.6
2018-Apr-15 14:41S 32°40' E 153°10'318.8
2018-Apr-15 14:30S 32°42' E 153°07'1218.5
2018-Apr-15 13:51S 32°49' E 152°56'618.0
2018-Apr-15 13:30S 32°53' E 152°50'917.6
2018-Apr-15 13:00S 32°59' E 152°42'918.3
2018-Apr-15 12:30S 33°04' E 152°33'1019.9
2018-Apr-15 12:00S 33°10' E 152°24'1020.7
2018-Apr-15 11:30S 33°17' E 152°14'2120.3
2018-Apr-15 10:29S 33°29' E 151°54'920.1
2018-Apr-15 10:00S 33°35' E 151°45'1020.3
2018-Apr-15 09:30S 33°41' E 151°35'1020.3
2018-Apr-15 09:00S 33°47' E 151°26'713.8
2018-Apr-15 08:31S 33°50' E 151°18'4 8.5
2018-Apr-15 08:00S 33°51' E 151°13'0 0.0
2018-Apr-14 20:19S 33°52' E 151°13'1 3.0
2018-Apr-14 20:00S 33°51' E 151°14'5 9.3
2018-Apr-14 19:30S 33°50' E 151°19'612.4
2018-Apr-14 19:00S 33°47' E 151°26'816.5
2018-Apr-14 18:30S 33°42' E 151°33'816.5
2018-Apr-14 18:00S 33°36' E 151°41'4416.0
2018-Apr-14 15:14S 33°07' E 152°20'416.0
2018-Apr-14 15:00S 33°04' E 152°24'1017.3
2018-Apr-14 14:25S 32°58' E 152°33'819.8
2018-Apr-14 14:00S 32°53' E 152°40'1119.7
2018-Apr-14 13:26S 32°45' E 152°50'819.5
2018-Apr-14 13:00S 32°40' E 152°58'919.1
2018-Apr-14 12:30S 32°33' E 153°06'7220.5
2018-Apr-14 09:00S 31°42' E 154°06'10116.9 360 / 291004.0 23.0 24.0
2018-Apr-14 03:00S 30°36' E 155°36'4715.7 340 / 331008.8 22.0 23.0
2018-Apr-14 00:00S 30°06' E 156°18'5117.1 360 / 271013.610.8 24.021.025.0
2018-Apr-13 21:00S 29°30' E 157°00'22218.5 360 / 251014.810.8 23.117.023.3
2018-Apr-13 09:00S 27°06' E 160°12'40316.8 080 / 121019.510.8 22.017.225.0
2018-Apr-12 09:00S 22°42' E 165°48'1618.8 110 / 321018.9 22.0 25.0
2018-Apr-12 08:08S 22°32' E 166°02'316.6
2018-Apr-12 07:57S 22°30' E 166°05'714.5
2018-Apr-12 07:30S 22°26' E 166°10'815.7
2018-Apr-12 07:01S 22°21' E 166°16'714.7
2018-Apr-12 06:30S 22°16' E 166°22'4 7.9
2018-Apr-12 06:01S 22°16' E 166°26'0 0.4
2018-Apr-12 05:30S 22°16' E 166°26'0 0.0
2018-Apr-12 05:00S 22°16' E 166°26'0 0.0
2018-Apr-12 04:30S 22°16' E 166°26'0 0.0
2018-Apr-12 04:00S 22°16' E 166°26'0 0.0
2018-Apr-12 03:30S 22°16' E 166°26'0 0.0
2018-Apr-12 03:00S 22°16' E 166°26'0 0.0
2018-Apr-12 02:30S 22°16' E 166°26'0 0.0
2018-Apr-12 02:00S 22°16' E 166°26'0 0.0
2018-Apr-12 01:30S 22°16' E 166°26'0 0.0
2018-Apr-12 01:00S 22°16' E 166°26'0 0.0
2018-Apr-12 00:27S 22°16' E 166°26'0 0.0
2018-Apr-11 23:57S 22°16' E 166°26'0 0.0
2018-Apr-11 23:27S 22°16' E 166°26'0 0.0
2018-Apr-11 23:00S 22°16' E 166°26'0 0.0
2018-Apr-11 22:30S 22°16' E 166°26'0 0.0
2018-Apr-11 22:00S 22°16' E 166°26'0 0.0
2018-Apr-11 21:30S 22°16' E 166°26'0 0.0
2018-Apr-11 21:00S 22°16' E 166°26'0 0.0
2018-Apr-11 20:31S 22°16' E 166°26'2 4.0
2018-Apr-11 20:01S 22°15' E 166°24'5 9.4
2018-Apr-11 19:30S 22°19' E 166°26'815.4
2018-Apr-11 19:00S 22°22' E 166°34'78 7.8
2018-Apr-11 09:00S 21°06' E 166°54'190 7.9 150 / 331013.5 22.0 26.5
2018-Apr-10 09:00S 24°06' E 165°48'   150 / 281010.9 22.0 25.0

Dump ship's entire track history